createdAt,value
2023-02-19T00:01:53.710Z,102384.42
2023-02-19T00:04:45.243Z,102388.64
2023-02-19T00:07:36.474Z,102390.27
2023-02-19T00:10:27.374Z,102385.39
2023-02-19T00:13:19.619Z,102383.29
2023-02-19T00:16:15.278Z,102377.05
2023-02-19T00:19:10.244Z,102373.27
2023-02-19T00:22:01.390Z,102368.64
2023-02-19T00:24:52.952Z,102365.35
2023-02-19T00:27:47.416Z,102359.40
2023-02-19T00:30:46.100Z,102357.46
2023-02-19T00:33:40.762Z,102354.83
2023-02-19T00:36:40.720Z,102348.89
2023-02-19T00:39:33.815Z,102346.46
2023-02-19T00:42:29.177Z,102344.60
2023-02-19T00:45:26.843Z,102344.54
2023-02-19T00:48:21.156Z,102344.14
2023-02-19T00:51:12.970Z,102342.73
2023-02-19T00:54:05.819Z,102338.81
2023-02-19T00:57:00.499Z,102340.92
2023-02-19T00:59:53.436Z,102336.20
2023-02-19T01:02:48.841Z,102335.92
2023-02-19T01:05:43.030Z,102334.10
2023-02-19T01:08:36.690Z,102327.84
2023-02-19T01:11:29.210Z,102325.27
2023-02-19T01:14:23.260Z,102325.00
2023-02-19T01:17:17.188Z,102320.02
2023-02-19T01:20:09.798Z,102317.66
2023-02-19T01:23:02.034Z,102316.28
2023-02-19T01:25:54.383Z,102315.66
2023-02-19T01:28:46.091Z,102312.06
2023-02-19T01:31:37.983Z,102310.08
2023-02-19T01:34:33.960Z,102305.76
2023-02-19T01:37:25.027Z,102302.91
2023-02-19T01:40:15.872Z,102301.77
2023-02-19T01:43:13.326Z,102298.69
2023-02-19T01:46:08.801Z,102297.73
2023-02-19T01:49:12.912Z,102294.50
2023-02-19T01:52:10.750Z,102291.42
2023-02-19T01:55:03.579Z,102284.92
2023-02-19T01:57:57.597Z,102286.60
2023-02-19T02:00:48.931Z,102284.54
2023-02-19T02:03:47.194Z,102275.57
2023-02-19T02:06:45.221Z,102273.77
2023-02-19T02:09:54.381Z,102268.55
2023-02-19T02:12:47.619Z,102264.31
2023-02-19T02:15:47.815Z,102259.21
2023-02-19T02:18:56.701Z,102257.34
2023-02-19T02:22:01.661Z,102257.52
2023-02-19T02:25:39.876Z,102251.98
2023-02-19T02:28:54.748Z,102249.55
2023-02-19T02:31:50.734Z,102247.25
2023-02-19T02:34:52.000Z,102240.30
2023-02-19T02:37:44.220Z,102237.29
2023-02-19T02:40:37.875Z,102234.25
2023-02-19T02:43:30.973Z,102228.09
2023-02-19T02:46:30.767Z,102230.15
2023-02-19T02:49:26.071Z,102229.57
2023-02-19T02:52:39.426Z,102229.32
2023-02-19T02:55:36.772Z,102223.30
2023-02-19T02:58:30.062Z,102222.05
2023-02-19T03:01:42.324Z,102217.98
2023-02-19T03:05:03.142Z,102216.91
2023-02-19T03:07:58.519Z,102215.67
2023-02-19T03:11:00.132Z,102217.34
2023-02-19T03:14:11.669Z,102213.83
2023-02-19T03:17:25.898Z,102212.44
2023-02-19T03:20:20.059Z,102210.58
2023-02-19T03:23:15.442Z,102211.88
2023-02-19T03:26:09.370Z,102216.42
2023-02-19T03:29:27.395Z,102213.27
2023-02-19T03:32:33.653Z,102214.67
2023-02-19T03:35:27.762Z,102215.67
2023-02-19T03:38:22.338Z,102216.73
2023-02-19T03:41:24.588Z,102217.42
2023-02-19T03:44:25.748Z,102219.34
2023-02-19T03:47:30.480Z,102220.72
2023-02-19T03:50:26.645Z,102220.92
2023-02-19T03:53:26.103Z,102219.20
2023-02-19T03:56:25.519Z,102219.77
2023-02-19T03:59:26.215Z,102219.96
2023-02-19T04:02:21.074Z,102224.46
2023-02-19T04:05:18.807Z,102226.58
2023-02-19T04:08:17.506Z,102223.08
2023-02-19T04:11:13.972Z,102217.30
2023-02-19T04:14:14.703Z,102219.55
2023-02-19T04:17:11.671Z,102217.09
2023-02-19T04:20:05.988Z,102218.36
2023-02-19T04:22:58.120Z,102220.02
2023-02-19T04:25:56.883Z,102222.03
2023-02-19T04:28:49.380Z,102223.66
2023-02-19T04:31:41.237Z,102225.25
2023-02-19T04:34:32.767Z,102223.02
2023-02-19T04:37:23.850Z,102223.55
2023-02-19T04:40:15.598Z,102220.80
2023-02-19T04:43:09.581Z,102224.84
2023-02-19T04:46:04.726Z,102228.76
2023-02-19T04:48:57.507Z,102233.41
2023-02-19T04:51:49.542Z,102233.06
2023-02-19T04:54:40.875Z,102228.58
2023-02-19T04:57:34.814Z,102223.52
2023-02-19T05:00:26.367Z,102215.14
2023-02-19T05:03:20.158Z,102214.73
2023-02-19T05:06:15.134Z,102219.88
2023-02-19T05:09:11.206Z,102218.74
2023-02-19T05:12:02.814Z,102218.48
2023-02-19T05:14:55.238Z,102217.63
2023-02-19T05:17:47.055Z,102214.71
2023-02-19T05:20:45.688Z,102215.30
2023-02-19T05:23:38.212Z,102215.04
2023-02-19T05:26:32.481Z,102217.84
2023-02-19T05:29:26.500Z,102227.77
2023-02-19T05:32:18.591Z,102229.50
2023-02-19T05:35:14.864Z,102225.35
2023-02-19T05:38:11.621Z,102225.69
2023-02-19T05:41:11.204Z,102220.11
2023-02-19T05:44:07.182Z,102216.92
2023-02-19T05:46:58.135Z,102213.09
2023-02-19T05:49:53.974Z,102208.75
2023-02-19T05:52:46.308Z,102211.49
2023-02-19T05:55:39.659Z,102209.46
2023-02-19T05:58:31.795Z,102204.02
2023-02-19T06:01:25.281Z,102204.91
2023-02-19T06:04:20.416Z,102200.69
2023-02-19T06:07:10.935Z,102202.23
2023-02-19T06:10:04.827Z,102199.72
2023-02-19T06:12:58.098Z,102200.20
2023-02-19T06:15:49.361Z,102195.58
2023-02-19T06:18:41.791Z,102193.44
2023-02-19T06:21:33.242Z,102192.84
2023-02-19T06:24:24.435Z,102195.63
2023-02-19T06:27:15.221Z,102198.88
2023-02-19T06:30:06.047Z,102199.98
2023-02-19T06:32:57.152Z,102203.02
2023-02-19T06:35:48.264Z,102203.37
2023-02-19T06:38:39.077Z,102201.98
2023-02-19T06:41:29.482Z,102203.96
2023-02-19T06:44:19.979Z,102202.41
2023-02-19T06:47:10.767Z,102204.17
2023-02-19T06:50:01.883Z,102209.27
2023-02-19T06:52:52.239Z,102209.13
2023-02-19T06:55:43.497Z,102207.89
2023-02-19T06:58:35.886Z,102209.62
2023-02-19T07:01:28.456Z,102210.77
2023-02-19T07:04:19.298Z,102207.61
2023-02-19T07:07:11.940Z,102206.02
2023-02-19T07:10:02.813Z,102207.89
2023-02-19T07:12:53.461Z,102207.52
2023-02-19T07:15:44.362Z,102205.02
2023-02-19T07:18:35.828Z,102212.29
2023-02-19T07:21:26.749Z,102214.60
2023-02-19T07:24:17.473Z,102213.27
2023-02-19T07:27:08.348Z,102212.38
2023-02-19T07:30:00.768Z,102212.52
2023-02-19T07:32:51.627Z,102210.14
2023-02-19T07:35:50.606Z,102204.66
2023-02-19T07:38:41.829Z,102201.77
2023-02-19T07:41:32.717Z,102206.94
2023-02-19T07:44:23.043Z,102207.48
2023-02-19T07:47:15.348Z,102211.93
2023-02-19T07:50:06.882Z,102218.05
2023-02-19T07:52:57.303Z,102220.85
2023-02-19T07:55:47.600Z,102218.43
2023-02-19T07:58:38.840Z,102218.70
2023-02-19T08:01:43.153Z,102217.69
2023-02-19T08:04:33.957Z,102221.30
2023-02-19T08:07:24.772Z,102219.35
2023-02-19T08:10:32.680Z,102223.79
2023-02-19T08:13:24.149Z,102223.14
2023-02-19T08:16:26.642Z,102219.66
2023-02-19T08:19:25.232Z,102226.33
2023-02-19T08:22:16.584Z,102227.48
2023-02-19T08:25:08.172Z,102227.58
2023-02-19T08:28:00.586Z,102217.36
2023-02-19T08:30:51.846Z,102215.14
2023-02-19T08:33:43.839Z,102215.13
2023-02-19T08:36:34.651Z,102218.70
2023-02-19T08:39:26.508Z,102215.70
2023-02-19T08:42:17.734Z,102214.81
2023-02-19T08:45:09.987Z,102208.81
2023-02-19T08:48:03.583Z,102208.73
2023-02-19T08:51:04.186Z,102210.22
2023-02-19T08:53:54.772Z,102208.90
2023-02-19T08:56:45.397Z,102209.52
2023-02-19T08:59:35.885Z,102210.77
2023-02-19T09:02:26.784Z,102211.42
2023-02-19T09:05:18.005Z,102212.42
2023-02-19T09:08:08.494Z,102213.11
2023-02-19T09:11:03.620Z,102217.67
2023-02-19T09:13:57.015Z,102220.00
2023-02-19T09:16:48.380Z,102215.23
2023-02-19T09:19:39.584Z,102214.22
2023-02-19T09:22:30.282Z,102212.76
2023-02-19T09:25:20.975Z,102213.97
2023-02-19T09:28:17.268Z,102217.27
2023-02-19T09:31:11.236Z,102220.56
2023-02-19T09:34:02.244Z,102224.84
2023-02-19T09:36:55.422Z,102223.73
2023-02-19T09:39:46.644Z,102222.33
2023-02-19T09:42:37.417Z,102227.10
2023-02-19T09:45:30.157Z,102231.17
2023-02-19T09:48:21.345Z,102232.21
2023-02-19T09:51:14.558Z,102230.48
2023-02-19T09:54:08.055Z,102234.63
2023-02-19T09:57:01.471Z,102232.92
2023-02-19T09:59:57.312Z,102237.44
2023-02-19T10:02:47.930Z,102234.98
2023-02-19T10:05:40.233Z,102236.02
2023-02-19T10:08:35.858Z,102236.30
2023-02-19T10:11:29.169Z,102237.17
2023-02-19T10:14:25.756Z,102237.59
2023-02-19T10:17:24.200Z,102233.84
2023-02-19T10:20:16.467Z,102233.30
2023-02-19T10:23:10.680Z,102238.20
2023-02-19T10:26:09.602Z,102241.91
2023-02-19T10:29:00.106Z,102240.23
2023-02-19T10:31:52.784Z,102237.50
2023-02-19T10:34:43.088Z,102238.66
2023-02-19T10:37:34.046Z,102232.70
2023-02-19T10:40:27.060Z,102228.96
2023-02-19T10:43:33.582Z,102233.28
2023-02-19T10:46:27.348Z,102231.81
2023-02-19T10:49:28.398Z,102233.61
2023-02-19T10:52:25.498Z,102235.52
2023-02-19T10:55:29.807Z,102238.48
2023-02-19T10:58:28.797Z,102232.48
2023-02-19T11:01:22.726Z,102231.34
2023-02-19T11:04:21.051Z,102226.23
2023-02-19T11:07:19.810Z,102224.01
2023-02-19T11:10:27.013Z,102215.20
2023-02-19T11:13:22.646Z,102208.70
2023-02-19T11:16:14.855Z,102210.79
2023-02-19T11:19:06.552Z,102211.48
2023-02-19T11:21:59.811Z,102207.60
2023-02-19T11:24:57.830Z,102203.65
2023-02-19T11:28:03.026Z,102195.55
2023-02-19T11:30:54.612Z,102195.27
2023-02-19T11:33:52.813Z,102196.58
2023-02-19T11:36:45.801Z,102193.47
2023-02-19T11:39:37.531Z,102192.65
2023-02-19T11:42:45.119Z,102193.04
2023-02-19T11:45:50.964Z,102186.04
2023-02-19T11:48:56.994Z,102181.11
2023-02-19T11:52:05.994Z,102179.60
2023-02-19T11:55:04.869Z,102169.91
2023-02-19T11:58:08.677Z,102165.52
2023-02-19T12:01:09.936Z,102165.27
2023-02-19T12:04:20.637Z,102161.77
2023-02-19T12:07:23.119Z,102157.77
2023-02-19T12:10:21.600Z,102153.66
2023-02-19T12:13:22.771Z,102148.95
2023-02-19T12:16:27.967Z,102145.63
2023-02-19T12:19:46.706Z,102146.87
2023-02-19T12:22:46.930Z,102141.14
2023-02-19T12:25:59.197Z,102135.73
2023-02-19T12:29:17.586Z,102131.73
2023-02-19T12:32:32.390Z,102124.63
2023-02-19T12:35:44.362Z,102119.23
2023-02-19T12:38:44.709Z,102111.14
2023-02-19T12:41:50.505Z,102112.80
2023-02-19T12:44:48.872Z,102107.27
2023-02-19T12:47:47.224Z,102102.54
2023-02-19T12:50:43.799Z,102099.40
2023-02-19T12:53:48.989Z,102097.67
2023-02-19T12:56:48.393Z,102093.65
2023-02-19T12:59:45.521Z,102086.16
2023-02-19T13:02:44.480Z,102081.22
2023-02-19T13:05:46.890Z,102074.41
2023-02-19T13:09:03.538Z,102072.42
2023-02-19T13:12:00.532Z,102068.57
2023-02-19T13:14:54.180Z,102067.99
2023-02-19T13:17:48.729Z,102062.94
2023-02-19T13:20:42.814Z,102057.41
2023-02-19T13:23:53.922Z,102057.10
2023-02-19T13:26:59.984Z,102054.73
2023-02-19T13:30:21.988Z,102052.38
2023-02-19T13:33:28.167Z,102047.98
2023-02-19T13:36:21.108Z,102047.69
2023-02-19T13:42:06.584Z,102043.94
2023-02-19T13:44:58.244Z,102039.98
2023-02-19T13:47:59.719Z,102037.70
2023-02-19T13:50:49.787Z,102034.65
2023-02-19T13:54:01.581Z,102029.67
2023-02-19T13:56:51.938Z,102029.41
2023-02-19T13:59:42.529Z,102027.17
2023-02-19T14:02:35.639Z,102022.90
2023-02-19T14:06:00.836Z,102016.95
2023-02-19T14:08:56.190Z,102016.14
2023-02-19T14:12:19.052Z,102010.52
2023-02-19T14:15:51.245Z,102012.34
2023-02-19T14:18:50.368Z,102013.11
2023-02-19T14:21:43.913Z,102017.32
2023-02-19T14:24:38.227Z,102018.24
2023-02-19T14:27:28.729Z,102017.58
2023-02-19T14:30:19.710Z,102017.98
2023-02-19T14:33:14.512Z,102013.75
2023-02-19T14:36:10.705Z,102012.66
2023-02-19T14:39:03.814Z,102013.86
2023-02-19T14:41:58.323Z,102013.94
2023-02-19T14:44:55.547Z,102013.23
2023-02-19T14:47:48.386Z,102017.73
2023-02-19T14:50:39.662Z,102016.79
2023-02-19T14:53:31.791Z,102018.02
2023-02-19T14:56:26.260Z,102020.39
2023-02-19T14:59:29.115Z,102018.98
2023-02-19T15:02:21.306Z,102023.42
2023-02-19T15:05:19.358Z,102022.96
2023-02-19T15:08:16.230Z,102022.73
2023-02-19T15:11:11.542Z,102023.84
2023-02-19T15:14:04.194Z,102023.30
2023-02-19T15:17:00.118Z,102026.94
2023-02-19T15:19:50.359Z,102026.14
2023-02-19T15:22:42.927Z,102030.33
2023-02-19T15:25:37.461Z,102034.07
2023-02-19T15:28:34.512Z,102033.61
2023-02-19T15:31:24.636Z,102036.27
2023-02-19T15:34:20.364Z,102032.48
2023-02-19T15:37:14.162Z,102036.94
2023-02-19T15:40:09.308Z,102042.11
2023-02-19T15:43:01.636Z,102042.48
2023-02-19T15:45:54.134Z,102043.61
2023-02-19T15:48:50.509Z,102043.15
2023-02-19T15:51:46.504Z,102045.73
2023-02-19T15:54:40.677Z,102048.77
2023-02-19T15:57:35.029Z,102045.73
2023-02-19T16:00:33.489Z,102042.64
2023-02-19T16:03:26.355Z,102040.85
2023-02-19T16:06:18.885Z,102037.86
2023-02-19T16:09:20.686Z,102036.43
2023-02-19T16:12:23.496Z,102032.77
2023-02-19T16:15:20.986Z,102030.88
2023-02-19T16:18:16.725Z,102027.39
2023-02-19T16:21:11.716Z,102028.41
2023-02-19T16:24:05.962Z,102028.96
2023-02-19T16:26:58.037Z,102025.94
2023-02-19T16:29:53.474Z,102025.33
2023-02-19T16:32:44.311Z,102022.64
2023-02-19T16:35:42.362Z,102017.23
2023-02-19T16:38:32.674Z,102021.61
2023-02-19T16:41:23.101Z,102024.64
2023-02-19T16:44:36.015Z,102025.19
2023-02-19T16:47:45.083Z,102025.49
2023-02-19T16:50:35.836Z,102024.02
2023-02-19T16:53:27.278Z,102026.54
2023-02-19T16:56:21.465Z,102024.73
2023-02-19T16:59:11.646Z,102030.70
2023-02-19T17:02:04.358Z,102033.67
2023-02-19T17:04:55.903Z,102036.94
2023-02-19T17:07:46.251Z,102042.70
2023-02-19T17:10:36.498Z,102035.95
2023-02-19T17:13:26.586Z,102034.75
2023-02-19T17:16:21.574Z,102035.24
2023-02-19T17:19:16.825Z,102035.98
2023-02-19T17:22:06.875Z,102041.44
2023-02-19T17:24:57.275Z,102047.13
2023-02-19T17:27:47.976Z,102044.06
2023-02-19T17:30:40.125Z,102043.52
2023-02-19T17:33:30.712Z,102044.06
2023-02-19T17:36:22.668Z,102044.65
2023-02-19T17:39:16.410Z,102035.41
2023-02-19T17:42:06.944Z,102036.17
2023-02-19T17:44:57.231Z,102047.54
2023-02-19T17:47:47.489Z,102042.38
2023-02-19T17:50:37.467Z,102046.05
2023-02-19T17:53:27.716Z,102059.05
2023-02-19T17:56:22.263Z,102075.20
2023-02-19T17:59:13.385Z,102084.44
2023-02-19T18:02:03.776Z,102085.80
2023-02-19T18:04:54.059Z,102086.33
2023-02-19T18:07:44.772Z,102093.52
2023-02-19T18:10:36.149Z,102090.77
2023-02-19T18:13:27.090Z,102083.41
2023-02-19T18:16:19.989Z,102089.50
2023-02-19T18:19:12.171Z,102081.73
2023-02-19T18:22:02.249Z,102081.62
2023-02-19T18:24:55.836Z,102090.61
2023-02-19T18:27:46.689Z,102091.71
2023-02-19T18:30:37.272Z,102091.77
2023-02-19T18:33:27.438Z,102102.96
2023-02-19T18:36:17.547Z,102103.98
2023-02-19T18:39:08.110Z,102110.92
2023-02-19T18:41:59.066Z,102111.65
2023-02-19T18:44:53.711Z,102106.27
2023-02-19T18:47:43.733Z,102113.01
2023-02-19T18:50:35.101Z,102117.42
2023-02-19T18:53:25.368Z,102118.61
2023-02-19T18:56:15.666Z,102122.14
2023-02-19T18:59:06.238Z,102116.23
2023-02-19T19:01:56.041Z,102118.99
2023-02-19T19:04:49.901Z,102119.23
2023-02-19T19:07:40.351Z,102115.95
2023-02-19T19:10:31.085Z,102123.20
2023-02-19T19:13:21.458Z,102119.23
2023-02-19T19:16:11.841Z,102114.21
2023-02-19T19:19:02.345Z,102118.64
2023-02-19T19:21:54.986Z,102125.83
2023-02-19T19:24:45.467Z,102130.48
2023-02-19T19:27:35.676Z,102127.96
2023-02-19T19:30:26.642Z,102130.42
2023-02-19T19:33:17.754Z,102131.27
2023-02-19T19:36:11.005Z,102126.18
2023-02-19T19:39:01.802Z,102130.44
2023-02-19T19:41:58.177Z,102126.56
2023-02-19T19:44:48.785Z,102127.55
2023-02-19T19:47:38.772Z,102134.39
2023-02-19T19:50:29.919Z,102126.44
2023-02-19T19:53:20.824Z,102127.41
2023-02-19T19:56:11.905Z,102135.80
2023-02-19T19:59:02.110Z,102137.04
2023-02-19T20:01:54.502Z,102136.90
2023-02-19T20:04:45.409Z,102140.64
2023-02-19T20:07:36.062Z,102145.89
2023-02-19T20:10:26.333Z,102146.61
2023-02-19T20:13:22.356Z,102144.70
2023-02-19T20:16:14.557Z,102142.36
2023-02-19T20:19:04.836Z,102139.36
2023-02-19T20:21:56.150Z,102143.02
2023-02-19T20:24:50.510Z,102146.01
2023-02-19T20:27:40.775Z,102150.23
2023-02-19T20:30:33.182Z,102153.77
2023-02-19T20:33:23.958Z,102155.70
2023-02-19T20:36:14.575Z,102157.66
2023-02-19T20:39:04.349Z,102155.91
2023-02-19T20:41:54.674Z,102156.58
2023-02-19T20:44:45.389Z,102163.02
2023-02-19T20:47:36.426Z,102164.00
2023-02-19T20:50:26.948Z,102171.46
2023-02-19T20:53:16.919Z,102173.63
2023-02-19T20:56:08.258Z,102172.52
2023-02-19T20:58:58.607Z,102172.58
2023-02-19T21:01:48.472Z,102171.77
2023-02-19T21:04:40.672Z,102173.13
2023-02-19T21:07:31.430Z,102176.77
2023-02-19T21:10:21.528Z,102178.62
2023-02-19T21:13:11.440Z,102180.81
2023-02-19T21:16:01.039Z,102177.27
2023-02-19T21:18:51.143Z,102176.48
2023-02-19T21:21:40.977Z,102174.71
2023-02-19T21:24:32.752Z,102177.21
2023-02-19T21:27:23.104Z,102180.02
2023-02-19T21:30:14.359Z,102179.16
2023-02-19T21:33:04.768Z,102181.57
2023-02-19T21:35:57.537Z,102186.09
2023-02-19T21:38:47.819Z,102192.58
2023-02-19T21:41:37.817Z,102197.88
2023-02-19T21:44:27.897Z,102199.74
2023-02-19T21:47:17.820Z,102201.42
2023-02-19T21:50:09.071Z,102205.21
2023-02-19T21:53:00.383Z,102209.73
2023-02-19T21:55:58.260Z,102204.29
2023-02-19T21:58:48.854Z,102202.04
2023-02-19T22:01:40.626Z,102202.27
2023-02-19T22:04:30.643Z,102210.18
2023-02-19T22:07:20.941Z,102214.08
2023-02-19T22:10:13.721Z,102221.27
2023-02-19T22:13:03.592Z,102223.64
2023-02-19T22:15:54.504Z,102225.11
2023-02-19T22:18:49.579Z,102230.73
2023-02-19T22:21:42.313Z,102231.31
2023-02-19T22:24:32.172Z,102230.80
2023-02-19T22:27:21.978Z,102229.71
2023-02-19T22:30:13.530Z,102226.79
2023-02-19T22:33:04.330Z,102228.73
2023-02-19T22:35:54.299Z,102228.54
2023-02-19T22:38:43.940Z,102225.67
2023-02-19T22:41:34.171Z,102223.04
2023-02-19T22:44:24.151Z,102221.86
2023-02-19T22:47:14.384Z,102219.47
2023-02-19T22:50:04.837Z,102219.27
2023-02-19T22:52:55.729Z,102217.20
2023-02-19T22:55:45.781Z,102216.27
2023-02-19T22:58:36.314Z,102214.44
2023-02-19T23:01:27.154Z,102214.23
2023-02-19T23:04:17.397Z,102213.75
2023-02-19T23:07:08.769Z,102212.41
2023-02-19T23:09:59.264Z,102209.09
2023-02-19T23:12:49.685Z,102200.89
2023-02-19T23:15:40.054Z,102196.67
2023-02-19T23:18:30.464Z,102193.48
2023-02-19T23:21:21.899Z,102193.73
2023-02-19T23:24:12.841Z,102192.98
2023-02-19T23:27:02.975Z,102192.00
2023-02-19T23:29:53.047Z,102190.45
2023-02-19T23:32:43.135Z,102188.80
2023-02-19T23:35:33.886Z,102183.30
2023-02-19T23:38:24.054Z,102173.15
2023-02-19T23:41:16.305Z,102174.09
2023-02-19T23:44:06.758Z,102178.33
2023-02-19T23:46:57.532Z,102181.46
2023-02-19T23:49:47.643Z,102183.59
2023-02-19T23:52:38.152Z,102181.89
2023-02-19T23:55:28.429Z,102178.31
2023-02-19T23:58:18.987Z,102178.80
